AirNav   Pilot Hours Calculator
 
 950 users online  

IL34 Henderson Field Airport
Belvidere, Illinois, USA

GOING TO BELVIDERE?


FAA INFORMATION EFFECTIVE 01 DECEMBER 2022

Location

FAA Identifier: IL34
Lat/Long: 42-12-52.0810N 088-45-25.3490W
42-12.868017N 088-45.422483W
42.2144669,-88.7570414
(estimated)
Elevation: 815 ft. / 248 m (estimated)
Variation: 00W (1985)
From city: 4 miles SE of BELVIDERE, IL
Time zone: UTC -6 (UTC -5 during Daylight Saving Time)
Zip code: 61038

Airport Operations

Airport use: Private use. Permission required prior to landing
Activation date: 08/1972
Control tower: no
ARTCC: CHICAGO CENTER
FSS: KANKAKEE FLIGHT SERVICE STATION
Attendance: UNATNDD
Wind indicator: yes
Segmented circle: no

Airport Communications

WX ASOS at RFD (15 nm W): PHONE 815-484-6229
WX AWOS-3 at DKB (17 nm S): 119.075 (815-748-2350)

Nearby radio navigation aids

VOR radial/distance  VOR name  Freq  Var
JVLr140/25.7JANESVILLE VOR/DME114.3003E
DPAr315/26.6DUPAGE VOR/DME108.4002E
OBKr271/35.8NORTHBROOK VOR/DME113.0002W
PLLr063/37.3POLO VOR/DME111.2003E

Airport Services

Runway Information

Runway E/W

Dimensions: 2800 x 80 ft. / 853 x 24 m
Surface: turf
RUNWAY E  RUNWAY W
Traffic pattern: rightleft

Airport Ownership and Management from official FAA records

Ownership: Privately-owned
Owner: JAMES HENDERSON
4175 SHATTUCK RD
GARDEN PRAIRIE, IL 61038
Phone 815-547-8230
Manager: JAMES HENDERSON
4175 SHATTUCK RD
GARDEN PRAIRIE, IL 61038
Phone 815-547-8230

Airport Operational Statistics

Aircraft based on the field: 2
Single engine airplanes: 2
    

Additional Remarks

FOR CD CTC CHICAGO ARTCC AT 630-906-8921.

Instrument Procedures

There are no published instrument procedures at IL34.

Some nearby airports with instrument procedures:

C77 - Poplar Grove Airport (7 nm NW)
KRFD - Chicago/Rockford International Airport (15 nm W)
KDKB - De Kalb Taylor Municipal Airport (17 nm S)
3CK - Lake in the Hills Airport (19 nm E)
44C - Beloit Airport (19 nm NW)
 
Loc | Ops | Rwys | IFR | FBO | Links
Com | Nav | Svcs | Stats | Notes
Area around IL34 (Henderson Field Airport)
 
Road maps at: MapQuest Bing Google
 
Aerial photo
No photo
 
Sectional chart

 
Airport distance calculator
Flying to Henderson Field Airport? Find the distance to fly.

From to IL34

Sunrise and sunset
Times for 07-Dec-2022
 Local
(UTC-6)
 Zulu
(UTC)
Morning civil twilight06:4012:40
Sunrise07:1113:11
Sunset16:2222:22
Evening civil twilight16:5322:53

Current date and time
Zulu (UTC)  07-Dec-2022 12:47:04
Local (UTC-6)  07-Dec-2022 06:47:04
 
METAR
KRFD 
15nm W 
071154Z 00000KT 6SM BR OVC014 01/M01 A3018 RMK AO2 SLP226 I6000 T00061011 10011 21039 53010
KDKB 
17nm S 
071235Z AUTO 00000KT 1 1/4SM BR SCT002 OVC017 00/00 A3018 RMK AO2 T00040004
KRPJ 
24nm SW 
071235Z AUTO 00000KT 5SM BR OVC012 03/03 A3018 RMK AO2 T00300025 TSNO
KJVL 
27nm NW 
071145Z 00000KT 1/4SM FZFG OVC001 M01/M01 A3016
KDPA 
29nm SE 
071152Z 00000KT 1/4SM R02L/1800FT FG VV002 02/02 A3017 RMK AO2 SLP222 T00220022 10039 20006 53013
KARR 
30nm SE 
071207Z AUTO 00000KT 2 1/2SM BR FEW003 OVC017 02/01 A3018 RMK AO2 T00170011
TAF
KRFD 
15nm W 
071120Z 0712/0812 VRB03KT 6SM BR OVC010 TEMPO 0712/0715 1SM BR OVC005 FM071800 31005KT P6SM BKN015 FM072100 35005KT P6SM BKN025 FM080100 01005KT P6SM SCT025 BKN100
NOTAMs
Click for the latest NOTAMs
NOTAMs are issued by the DoD/FAA and will open in a separate window not controlled by AirNav.

 

 
 

Would you like to see your business listed on this page?

 If your business provides an interesting product or service to pilots, flight crews, aircraft, or users of the Henderson Field Airport, you should consider listing it here.  To start the listing process, click on the button below
 
Add a business
 

Other Pages about Henderson Field Airport

Update a link
 
Copyright © AirNav, LLC. All rights reserved. Privacy Policy  Contact